Wilson Lahn — 8PUO — position and weather

sailwx.info

Track history (hours):
 
Tides and Currents Weather Stations Pressure Air Temp Water Temp Dewpoint Dewpoint Depression Visibility Wind Speed Wind Dir Waves Ship Positions

Wilson Lahn

Last reported at 2015-Jul-29 13:33 UTC. Time now 2015-Jul-29 15:54 UTC.
Position N 63°49' E 009°38'.

Length 83 m; draft 4.8 m.

Type: Cargo ship. MMSI: 314259000.

Date/timePositionNaut miles runAvg speedWind from/ knotsBaromVisibWave heightAir tempDewpointWater temp
2015-Jul-29 13:33N 63°49' E 009°38'0 0.0
2015-Jul-29 11:17N 63°49' E 009°38'0 0.0
2015-Jul-29 09:11N 63°49' E 009°38'0 0.0
2015-Jul-29 07:17N 63°49' E 009°38'0 0.0
2015-Jul-29 00:32N 63°49' E 009°38'0 0.0
2015-Jul-28 22:32N 63°49' E 009°38'0 0.0
2015-Jul-28 21:29N 63°49' E 009°38'0 0.0
2015-Jul-28 20:23N 63°49' E 009°38'0 0.0
2015-Jul-28 19:23N 63°49' E 009°38'0 0.0
2015-Jul-28 18:20N 63°49' E 009°38'0 0.0
2015-Jul-28 17:23N 63°49' E 009°38'0 0.0
2015-Jul-28 16:32N 63°49' E 009°38'0 0.0
2015-Jul-28 15:32N 63°49' E 009°38'0 0.0
2015-Jul-28 14:14N 63°49' E 009°38'0 0.0
2015-Jul-28 13:17N 63°49' E 009°38'0 0.0
2015-Jul-28 12:23N 63°49' E 009°38'0 0.0
2015-Jul-28 11:23N 63°49' E 009°38'0 0.0
2015-Jul-28 10:32N 63°49' E 009°38'0 0.0
2015-Jul-28 09:29N 63°49' E 009°38'0 0.0
2015-Jul-28 08:23N 63°49' E 009°38'0 0.0
2015-Jul-28 07:29N 63°49' E 009°38'0 0.0
2015-Jul-28 06:29N 63°49' E 009°38'0 0.0
2015-Jul-28 05:23N 63°49' E 009°38'0 0.0
2015-Jul-28 04:32N 63°49' E 009°38'0 0.0
2015-Jul-28 03:29N 63°49' E 009°38'0 0.0
2015-Jul-28 02:29N 63°49' E 009°38'0 0.0
2015-Jul-28 01:29N 63°49' E 009°38'0 0.0
2015-Jul-28 00:29N 63°49' E 009°38'0 0.0
2015-Jul-27 23:29N 63°49' E 009°38'0 0.0
2015-Jul-27 22:32N 63°49' E 009°38'0 0.0
2015-Jul-27 21:32N 63°49' E 009°38'0 0.0
2015-Jul-27 20:32N 63°49' E 009°38'0 0.0
2015-Jul-27 19:23N 63°49' E 009°38'0 0.0
2015-Jul-27 18:11N 63°49' E 009°39'0 0.1
2015-Jul-27 17:32N 63°49' E 009°38'0 0.0
2015-Jul-27 16:29N 63°49' E 009°38'0 0.0
2015-Jul-27 15:32N 63°49' E 009°38'0 0.0
2015-Jul-27 13:29N 63°49' E 009°38'0 0.0
2015-Jul-27 12:26N 63°49' E 009°38'0 0.0
2015-Jul-27 11:32N 63°49' E 009°38'0 0.0
2015-Jul-27 10:29N 63°49' E 009°38'0 0.0
2015-Jul-27 09:23N 63°49' E 009°38'0 0.0
2015-Jul-27 06:23N 63°49' E 009°38'0 0.0
2015-Jul-27 05:29N 63°49' E 009°38'0 0.0
2015-Jul-27 02:32N 63°49' E 009°38'0 0.0
2015-Jul-27 00:29N 63°49' E 009°38'0 0.0
2015-Jul-26 21:29N 63°49' E 009°38'0 0.0
2015-Jul-26 16:29N 63°49' E 009°38'0 0.0
2015-Jul-26 15:17N 63°49' E 009°38'0 0.0
2015-Jul-26 14:23N 63°49' E 009°38'0 0.0
2015-Jul-26 13:32N 63°49' E 009°38'0 0.0
2015-Jul-26 11:05N 63°49' E 009°38'0 0.0
2015-Jul-26 10:32N 63°49' E 009°38'0 0.0
2015-Jul-26 09:32N 63°49' E 009°38'0 0.0
2015-Jul-26 08:11N 63°49' E 009°38'0 0.0
2015-Jul-26 07:23N 63°49' E 009°38'0 0.0
2015-Jul-26 06:23N 63°49' E 009°38'0 0.0
2015-Jul-26 05:23N 63°49' E 009°38'0 0.0
2015-Jul-26 03:32N 63°49' E 009°38'0 0.0
2015-Jul-26 02:29N 63°49' E 009°38'0 0.0
2015-Jul-26 01:14N 63°49' E 009°38'0 0.0
2015-Jul-26 00:26N 63°49' E 009°38'0 0.0
2015-Jul-25 22:32N 63°49' E 009°38'0 0.0
2015-Jul-25 21:32N 63°49' E 009°38'0 0.0
2015-Jul-25 20:32N 63°49' E 009°38'6 5.8
2015-Jul-25 19:33N 63°45' E 009°29'11 8.1
2015-Jul-25 18:13N 63°36' E 009°16'294 8.4
2015-Jul-24 07:17N 59°12' E 004°41'9 9.5
2015-Jul-24 06:23N 59°04' E 004°44'8 9.4
2015-Jul-24 05:33N 58°56' E 004°48'218 9.1
2015-Jul-23 05:33N 55°30' E 006°55'8 8.1
2015-Jul-23 04:33N 55°22' E 006°60'8 7.8
2015-Jul-23 03:33N 55°15' E 007°05'8 8.2
2015-Jul-23 02:33N 55°07' E 007°06'8 8.2
2015-Jul-23 01:33N 54°59' E 007°07'8 8.1
2015-Jul-23 00:33N 54°51' E 007°11'10 8.3
2015-Jul-22 23:21N 54°41' E 007°17'7 8.3
2015-Jul-22 22:33N 54°35' E 007°18'9 9.0
2015-Jul-22 21:33N 54°26' E 007°22'9 9.2
2015-Jul-22 20:33N 54°17' E 007°26'9 9.3
2015-Jul-22 19:33N 54°08' E 007°31'10 9.9
2015-Jul-22 18:33N 53°60' E 007°39'9 9.2
2015-Jul-22 17:33N 53°53' E 007°50'1110.6
2015-Jul-22 16:33N 53°49' E 008°07'10 9.9
2015-Jul-22 15:33N 53°42' E 008°19'8 8.2
2015-Jul-22 14:33N 53°37' E 008°29'6 6.3
2015-Jul-22 13:33N 53°31' E 008°33'7 6.9
2015-Jul-22 12:33N 53°24' E 008°30'5 0.7
2015-Jul-22 06:23N 53°20' E 008°29'0 0.0
2015-Jul-22 05:26N 53°20' E 008°29'0 0.0
2015-Jul-22 04:29N 53°20' E 008°29'0 0.0
2015-Jul-22 03:32N 53°20' E 008°29'0 0.0
2015-Jul-22 02:32N 53°20' E 008°29'0 0.0
2015-Jul-22 01:33N 53°20' E 008°29'0 0.3
2015-Jul-22 00:33N 53°20' E 008°29'0 0.0
2015-Jul-21 23:31N 53°20' E 008°29'0 0.0
2015-Jul-21 22:31N 53°20' E 008°29'0 0.0
2015-Jul-21 21:31N 53°20' E 008°29'0 0.0
2015-Jul-21 20:31N 53°20' E 008°29'0 0.0
2015-Jul-21 19:31N 53°20' E 008°29'0 0.0
2015-Jul-21 18:31N 53°20' E 008°29'0 0.0
2015-Jul-21 17:31N 53°20' E 008°29'0 0.0
2015-Jul-21 16:22N 53°20' E 008°29'0 0.0
2015-Jul-21 15:28N 53°20' E 008°29'0 0.0
2015-Jul-21 13:31N 53°20' E 008°29'0 0.0
2015-Jul-21 12:31N 53°20' E 008°29'0 0.0
2015-Jul-21 11:31N 53°20' E 008°29'0 0.0
2015-Jul-21 10:31N 53°20' E 008°29'0 0.0
2015-Jul-21 09:28N 53°20' E 008°29'0 0.0
2015-Jul-21 08:31N 53°20' E 008°29'0 0.0
2015-Jul-21 07:28N 53°20' E 008°29'0 0.0
2015-Jul-21 06:25N 53°20' E 008°29'0 0.0
2015-Jul-21 05:31N 53°20' E 008°29'5 5.4
2015-Jul-21 04:33N 53°15' E 008°29'9 9.5
2015-Jul-21 03:33N 53°08' E 008°39'2 2.4
2015-Jul-21 02:33N 53°07' E 008°43'0 0.1
2015-Jul-21 01:32N 53°07' E 008°43'0 0.0
2015-Jul-21 00:32N 53°07' E 008°43'0 0.0
2015-Jul-20 23:32N 53°07' E 008°43'0 0.0
2015-Jul-20 22:32N 53°07' E 008°43'0 0.0
2015-Jul-20 21:32N 53°07' E 008°43'0 0.0
2015-Jul-20 20:32N 53°07' E 008°43'0 0.0
2015-Jul-20 19:32N 53°07' E 008°43'0 0.0
2015-Jul-20 18:32N 53°07' E 008°43'0 0.0
2015-Jul-20 17:32N 53°07' E 008°43'0 0.0
2015-Jul-20 16:32N 53°07' E 008°43'0 0.0
2015-Jul-20 15:32N 53°07' E 008°43'0 0.0
2015-Jul-20 14:32N 53°07' E 008°43'0 0.0
2015-Jul-20 13:32N 53°07' E 008°43'0 0.0
2015-Jul-20 12:32N 53°07' E 008°43'0 0.0
2015-Jul-20 11:32N 53°07' E 008°43'0 0.0
2015-Jul-20 10:32N 53°07' E 008°43'0 0.0
2015-Jul-20 09:32N 53°07' E 008°43'0 0.0
2015-Jul-20 08:33N 53°07' E 008°43'0 0.0
2015-Jul-20 07:32N 53°07' E 008°43'0 0.0
2015-Jul-20 06:32N 53°07' E 008°43'0 0.0
2015-Jul-20 05:32N 53°07' E 008°43'0 0.0
2015-Jul-20 04:32N 53°07' E 008°43'0 0.0
2015-Jul-20 03:32N 53°07' E 008°43'0 0.0
2015-Jul-20 02:32N 53°07' E 008°43'0 0.0
2015-Jul-20 01:32N 53°07' E 008°43'0 0.0
2015-Jul-20 00:32N 53°07' E 008°43'0 0.0
2015-Jul-19 23:32N 53°07' E 008°43'0 0.0
2015-Jul-19 22:32N 53°07' E 008°43'0 0.0
2015-Jul-19 21:32N 53°07' E 008°43'0 0.0
2015-Jul-19 20:32N 53°07' E 008°43'0 0.0
2015-Jul-19 19:29N 53°07' E 008°43'0 0.0
2015-Jul-19 18:32N 53°07' E 008°43'0 0.1
2015-Jul-19 17:34N 53°07' E 008°43'2 2.3
2015-Jul-19 16:34N 53°08' E 008°39'8 7.8
2015-Jul-19 15:33N 53°13' E 008°30'9 9.2
2015-Jul-19 14:33N 53°22' E 008°30'9 8.7
2015-Jul-19 13:33N 53°31' E 008°32'  
Track history (hours):
 
Tides and Currents Weather Stations Pressure Air Temp Water Temp Dewpoint Dewpoint Depression Visibility Wind Speed Wind Dir Waves Ship Positions

Wilson Lahn

Last reported at 2015-Jul-29 13:33 UTC. Time now 2015-Jul-29 15:54 UTC.
Position N 63°49' E 009°38'.

Length 83 m; draft 4.8 m.

Type: Cargo ship. MMSI: 314259000.

Date/timePositionNaut miles runAvg speedWind from/ knotsBaromVisibWave heightAir tempDewpointWater temp
2015-Jul-29 13:33N 63°49' E 009°38'0 0.0
2015-Jul-29 11:17N 63°49' E 009°38'0 0.0
2015-Jul-29 09:11N 63°49' E 009°38'0 0.0
2015-Jul-29 07:17N 63°49' E 009°38'0 0.0
2015-Jul-29 00:32N 63°49' E 009°38'0 0.0
2015-Jul-28 22:32N 63°49' E 009°38'0 0.0
2015-Jul-28 21:29N 63°49' E 009°38'0 0.0
2015-Jul-28 20:23N 63°49' E 009°38'0 0.0
2015-Jul-28 19:23N 63°49' E 009°38'0 0.0
2015-Jul-28 18:20N 63°49' E 009°38'0 0.0
2015-Jul-28 17:23N 63°49' E 009°38'0 0.0
2015-Jul-28 16:32N 63°49' E 009°38'0 0.0
2015-Jul-28 15:32N 63°49' E 009°38'0 0.0
2015-Jul-28 14:14N 63°49' E 009°38'0 0.0
2015-Jul-28 13:17N 63°49' E 009°38'0 0.0
2015-Jul-28 12:23N 63°49' E 009°38'0 0.0
2015-Jul-28 11:23N 63°49' E 009°38'0 0.0
2015-Jul-28 10:32N 63°49' E 009°38'0 0.0
2015-Jul-28 09:29N 63°49' E 009°38'0 0.0
2015-Jul-28 08:23N 63°49' E 009°38'0 0.0
2015-Jul-28 07:29N 63°49' E 009°38'0 0.0
2015-Jul-28 06:29N 63°49' E 009°38'0 0.0
2015-Jul-28 05:23N 63°49' E 009°38'0 0.0
2015-Jul-28 04:32N 63°49' E 009°38'0 0.0
2015-Jul-28 03:29N 63°49' E 009°38'0 0.0
2015-Jul-28 02:29N 63°49' E 009°38'0 0.0
2015-Jul-28 01:29N 63°49' E 009°38'0 0.0
2015-Jul-28 00:29N 63°49' E 009°38'0 0.0
2015-Jul-27 23:29N 63°49' E 009°38'0 0.0
2015-Jul-27 22:32N 63°49' E 009°38'0 0.0
2015-Jul-27 21:32N 63°49' E 009°38'0 0.0
2015-Jul-27 20:32N 63°49' E 009°38'0 0.0
2015-Jul-27 19:23N 63°49' E 009°38'0 0.0
2015-Jul-27 18:11N 63°49' E 009°39'0 0.1
2015-Jul-27 17:32N 63°49' E 009°38'0 0.0
2015-Jul-27 16:29N 63°49' E 009°38'0 0.0
2015-Jul-27 15:32N 63°49' E 009°38'0 0.0
2015-Jul-27 13:29N 63°49' E 009°38'0 0.0
2015-Jul-27 12:26N 63°49' E 009°38'0 0.0
2015-Jul-27 11:32N 63°49' E 009°38'0 0.0
2015-Jul-27 10:29N 63°49' E 009°38'0 0.0
2015-Jul-27 09:23N 63°49' E 009°38'0 0.0
2015-Jul-27 06:23N 63°49' E 009°38'0 0.0
2015-Jul-27 05:29N 63°49' E 009°38'0 0.0
2015-Jul-27 02:32N 63°49' E 009°38'0 0.0
2015-Jul-27 00:29N 63°49' E 009°38'0 0.0
2015-Jul-26 21:29N 63°49' E 009°38'0 0.0
2015-Jul-26 16:29N 63°49' E 009°38'0 0.0
2015-Jul-26 15:17N 63°49' E 009°38'0 0.0
2015-Jul-26 14:23N 63°49' E 009°38'0 0.0
2015-Jul-26 13:32N 63°49' E 009°38'0 0.0
2015-Jul-26 11:05N 63°49' E 009°38'0 0.0
2015-Jul-26 10:32N 63°49' E 009°38'0 0.0
2015-Jul-26 09:32N 63°49' E 009°38'0 0.0
2015-Jul-26 08:11N 63°49' E 009°38'0 0.0
2015-Jul-26 07:23N 63°49' E 009°38'0 0.0
2015-Jul-26 06:23N 63°49' E 009°38'0 0.0
2015-Jul-26 05:23N 63°49' E 009°38'0 0.0
2015-Jul-26 03:32N 63°49' E 009°38'0 0.0
2015-Jul-26 02:29N 63°49' E 009°38'0 0.0
2015-Jul-26 01:14N 63°49' E 009°38'0 0.0
2015-Jul-26 00:26N 63°49' E 009°38'0 0.0
2015-Jul-25 22:32N 63°49' E 009°38'0 0.0
2015-Jul-25 21:32N 63°49' E 009°38'0 0.0
2015-Jul-25 20:32N 63°49' E 009°38'6 5.8
2015-Jul-25 19:33N 63°45' E 009°29'11 8.1
2015-Jul-25 18:13N 63°36' E 009°16'294 8.4
2015-Jul-24 07:17N 59°12' E 004°41'9 9.5
2015-Jul-24 06:23N 59°04' E 004°44'8 9.4
2015-Jul-24 05:33N 58°56' E 004°48'218 9.1
2015-Jul-23 05:33N 55°30' E 006°55'8 8.1
2015-Jul-23 04:33N 55°22' E 006°60'8 7.8
2015-Jul-23 03:33N 55°15' E 007°05'8 8.2
2015-Jul-23 02:33N 55°07' E 007°06'8 8.2
2015-Jul-23 01:33N 54°59' E 007°07'8 8.1
2015-Jul-23 00:33N 54°51' E 007°11'10 8.3
2015-Jul-22 23:21N 54°41' E 007°17'7 8.3
2015-Jul-22 22:33N 54°35' E 007°18'9 9.0
2015-Jul-22 21:33N 54°26' E 007°22'9 9.2
2015-Jul-22 20:33N 54°17' E 007°26'9 9.3
2015-Jul-22 19:33N 54°08' E 007°31'10 9.9
2015-Jul-22 18:33N 53°60' E 007°39'9 9.2
2015-Jul-22 17:33N 53°53' E 007°50'1110.6
2015-Jul-22 16:33N 53°49' E 008°07'10 9.9
2015-Jul-22 15:33N 53°42' E 008°19'8 8.2
2015-Jul-22 14:33N 53°37' E 008°29'6 6.3
2015-Jul-22 13:33N 53°31' E 008°33'7 6.9
2015-Jul-22 12:33N 53°24' E 008°30'5 0.7
2015-Jul-22 06:23N 53°20' E 008°29'0 0.0
2015-Jul-22 05:26N 53°20' E 008°29'0 0.0
2015-Jul-22 04:29N 53°20' E 008°29'0 0.0
2015-Jul-22 03:32N 53°20' E 008°29'0 0.0
2015-Jul-22 02:32N 53°20' E 008°29'0 0.0
2015-Jul-22 01:33N 53°20' E 008°29'0 0.3
2015-Jul-22 00:33N 53°20' E 008°29'0 0.0
2015-Jul-21 23:31N 53°20' E 008°29'0 0.0
2015-Jul-21 22:31N 53°20' E 008°29'0 0.0
2015-Jul-21 21:31N 53°20' E 008°29'0 0.0
2015-Jul-21 20:31N 53°20' E 008°29'0 0.0
2015-Jul-21 19:31N 53°20' E 008°29'0 0.0
2015-Jul-21 18:31N 53°20' E 008°29'0 0.0
2015-Jul-21 17:31N 53°20' E 008°29'0 0.0
2015-Jul-21 16:22N 53°20' E 008°29'0 0.0
2015-Jul-21 15:28N 53°20' E 008°29'0 0.0
2015-Jul-21 13:31N 53°20' E 008°29'0 0.0
2015-Jul-21 12:31N 53°20' E 008°29'0 0.0
2015-Jul-21 11:31N 53°20' E 008°29'0 0.0
2015-Jul-21 10:31N 53°20' E 008°29'0 0.0
2015-Jul-21 09:28N 53°20' E 008°29'0 0.0
2015-Jul-21 08:31N 53°20' E 008°29'0 0.0
2015-Jul-21 07:28N 53°20' E 008°29'0 0.0
2015-Jul-21 06:25N 53°20' E 008°29'0 0.0
2015-Jul-21 05:31N 53°20' E 008°29'5 5.4
2015-Jul-21 04:33N 53°15' E 008°29'9 9.5
2015-Jul-21 03:33N 53°08' E 008°39'2 2.4
2015-Jul-21 02:33N 53°07' E 008°43'0 0.1
2015-Jul-21 01:32N 53°07' E 008°43'0 0.0
2015-Jul-21 00:32N 53°07' E 008°43'0 0.0
2015-Jul-20 23:32N 53°07' E 008°43'0 0.0
2015-Jul-20 22:32N 53°07' E 008°43'0 0.0
2015-Jul-20 21:32N 53°07' E 008°43'0 0.0
2015-Jul-20 20:32N 53°07' E 008°43'0 0.0
2015-Jul-20 19:32N 53°07' E 008°43'0 0.0
2015-Jul-20 18:32N 53°07' E 008°43'0 0.0
2015-Jul-20 17:32N 53°07' E 008°43'0 0.0
2015-Jul-20 16:32N 53°07' E 008°43'0 0.0
2015-Jul-20 15:32N 53°07' E 008°43'0 0.0
2015-Jul-20 14:32N 53°07' E 008°43'0 0.0
2015-Jul-20 13:32N 53°07' E 008°43'0 0.0
2015-Jul-20 12:32N 53°07' E 008°43'0 0.0
2015-Jul-20 11:32N 53°07' E 008°43'0 0.0
2015-Jul-20 10:32N 53°07' E 008°43'0 0.0
2015-Jul-20 09:32N 53°07' E 008°43'0 0.0
2015-Jul-20 08:33N 53°07' E 008°43'0 0.0
2015-Jul-20 07:32N 53°07' E 008°43'0 0.0
2015-Jul-20 06:32N 53°07' E 008°43'0 0.0
2015-Jul-20 05:32N 53°07' E 008°43'0 0.0
2015-Jul-20 04:32N 53°07' E 008°43'0 0.0
2015-Jul-20 03:32N 53°07' E 008°43'0 0.0
2015-Jul-20 02:32N 53°07' E 008°43'0 0.0
2015-Jul-20 01:32N 53°07' E 008°43'0 0.0
2015-Jul-20 00:32N 53°07' E 008°43'0 0.0
2015-Jul-19 23:32N 53°07' E 008°43'0 0.0
2015-Jul-19 22:32N 53°07' E 008°43'0 0.0
2015-Jul-19 21:32N 53°07' E 008°43'0 0.0
2015-Jul-19 20:32N 53°07' E 008°43'0 0.0
2015-Jul-19 19:29N 53°07' E 008°43'0 0.0
2015-Jul-19 18:32N 53°07' E 008°43'0 0.1
2015-Jul-19 17:34N 53°07' E 008°43'2 2.3
2015-Jul-19 16:34N 53°08' E 008°39'8 7.8
2015-Jul-19 15:33N 53°13' E 008°30'9 9.2
2015-Jul-19 14:33N 53°22' E 008°30'9 8.7
2015-Jul-19 13:33N 53°31' E 008°32'  

Dump ship's entire track history